Portada
METAR-TAF:

METAR-TAF

Aeroports :

Ahwaz, Iran

latitud: 31-20N, longitud: 048-40E, altitud: 20 m

Observació

L'informe es va fer fa 33 minuts, a les 04:00 UTC
Vent calma
Temperatura 40°C
Humitat 26%
Pressió 995 hPa
Visibilitat: 8000 m

METAR: OIAW 210400Z 00000KT 8000 NSC 40/17 Q0995 NOSIG

Hora: 09:03 (04:33 UTC)

Pronòstic

L'informe es va fer fa 5 hores i 23 minuts, a les 23:10 UTC
Pronòstic vàlid del 21 a les 00 UTC al 22 a les 06 UTC
Vent 8 kt del Oest
Visibilitat: 8000 m
Temporalment
l' 21 a les 09 UTC al 21 a les 15 UTC
Vent 16 kt del Oest/Sud-Oest
Temporalment
l' 22 a les 00 UTC al 22 a les 05 UTC
Visibilitat: 5000 m
calitja,

TAF: OIAW 202310Z 2100/2206 28008KT 8000 NSC TEMPO 2109/2115 25016KT TEMPO 2200/2205 5000 HZ

Observacions i pronòstics meteorològics de més de 4000 aeroports (METAR i TAF).

Les estacions disponibles són els punts grocs i vermells al mapa.

Posi el ratolí al punt desitjat per veure el nom de l'estació.

Feu clic per veure les observacions i els pronòstics meteorològics.

Per canviar el mapa: feu clic els botons verds amb una creu de color negre per apropar; al botó verd amb un guió per allunyar la imatge; o en les fletxes verdes per a mapes adjacents.


METAR-TAF: